Time;durP1;ratioP1;P1;durP2;ratioP2;P2;SDS_P1;SDS_P2;PMS_P1;PMS_P2;Temp;Humidity;BMP_temperature;BMP_pressure;BME280_temperature;BME280_humidity;BME280_pressure;Samples;Min_cycle;Max_cycle;Signal;HPM_P1;HPM_P2
2023/09/16 00:01:55;;;;;;;6.53;2.87;;;;;;;;;;5017498;28;20794;-57
2023/09/16 00:04:21;;;;;;;6.90;2.93;;;;;;;;;;5022786;28;20887;-57
2023/09/16 00:06:46;;;;;;;5.28;3.00;;;;;;;;;;5022808;28;20399;-57
2023/09/16 00:09:11;;;;;;;6.70;2.97;;;;;;;;;;5020281;28;20448;-56
2023/09/16 00:11:37;;;;;;;5.47;3.03;;;;;;;;;;5021605;28;20419;-56
2023/09/16 00:14:02;;;;;;;7.97;3.80;;;;;;;;;;5022287;28;20981;-57
2023/09/16 00:16:29;;;;;;;7.63;3.33;;;;;;;;;;5022317;28;20407;-57
2023/09/16 00:18:54;;;;;;;5.95;2.90;;;;;;;;;;5019288;28;20425;-57
2023/09/16 00:21:20;;;;;;;7.80;3.03;;;;;;;;;;5022605;28;20396;-57
2023/09/16 00:23:45;;;;;;;5.82;3.50;;;;;;;;;;5023408;28;20403;-57
2023/09/16 00:26:13;;;;;;;5.97;3.20;;;;;;;;;;5018808;28;20427;-57
2023/09/16 00:28:40;;;;;;;7.22;3.60;;;;;;;;;;5021412;28;20411;-57
2023/09/16 00:31:06;;;;;;;7.55;3.28;;;;;;;;;;5022630;28;20958;-57
2023/09/16 00:33:31;;;;;;;6.22;3.13;;;;;;;;;;5021394;28;20504;-57
2023/09/16 00:35:57;;;;;;;5.23;3.20;;;;;;;;;;5019126;28;20873;-57
2023/09/16 00:38:22;;;;;;;7.22;3.50;;;;;;;;;;5022846;28;20402;-57
2023/09/16 00:40:47;;;;;;;5.40;3.30;;;;;;;;;;5023213;28;20509;-57
2023/09/16 00:43:13;;;;;;;7.87;3.40;;;;;;;;;;5016406;28;20894;-56
2023/09/16 00:45:38;;;;;;;8.30;3.23;;;;;;;;;;5021773;28;20403;-57
2023/09/16 00:48:03;;;;;;;5.43;3.27;;;;;;;;;;5013626;28;20409;-57
2023/09/16 00:50:29;;;;;;;6.73;3.63;;;;;;;;;;5018927;28;20403;-57
2023/09/16 00:52:55;;;;;;;6.40;3.50;;;;;;;;;;5021604;28;20415;-57
2023/09/16 00:55:21;;;;;;;8.27;3.47;;;;;;;;;;5022774;28;20763;-57
2023/09/16 00:57:47;;;;;;;7.80;3.40;;;;;;;;;;5020806;28;20399;-57
2023/09/16 01:00:12;;;;;;;6.97;3.55;;;;;;;;;;5018969;28;21746;-57
2023/09/16 01:02:38;;;;;;;6.50;3.37;;;;;;;;;;5022509;28;20969;-57
2023/09/16 01:05:04;;;;;;;8.10;3.70;;;;;;;;;;5020449;28;20411;-57
2023/09/16 01:07:30;;;;;;;7.23;3.60;;;;;;;;;;5017514;28;20471;-57
2023/09/16 01:09:55;;;;;;;6.60;3.50;;;;;;;;;;5020393;28;20452;-57
2023/09/16 01:12:20;;;;;;;6.10;3.58;;;;;;;;;;5027526;28;20414;-57
2023/09/16 01:14:46;;;;;;;6.47;3.70;;;;;;;;;;5029574;28;20399;-57
2023/09/16 01:17:21;;;;;;;6.57;3.90;;;;;;;;;;5024200;28;20422;-57
2023/09/16 01:19:47;;;;;;;7.63;3.60;;;;;;;;;;5022863;28;20407;-57
2023/09/16 01:22:14;;;;;;;7.15;3.50;;;;;;;;;;5024202;28;20438;-57
2023/09/16 01:24:40;;;;;;;7.03;3.88;;;;;;;;;;5025693;28;20430;-57
2023/09/16 01:27:07;;;;;;;8.48;3.55;;;;;;;;;;5021155;28;20407;-57
2023/09/16 01:29:32;;;;;;;7.63;3.83;;;;;;;;;;5025541;28;20881;-57
2023/09/16 01:31:59;;;;;;;8.47;4.00;;;;;;;;;;5026013;28;20490;-56
2023/09/16 01:34:29;;;;;;;6.65;3.60;;;;;;;;;;5019051;28;20406;-57
2023/09/16 01:36:55;;;;;;;8.57;3.80;;;;;;;;;;4998361;28;20415;-57
2023/09/16 01:39:22;;;;;;;9.23;4.10;;;;;;;;;;4995371;28;20373;-57
2023/09/16 01:41:47;;;;;;;6.18;3.78;;;;;;;;;;4990642;28;20484;-56
2023/09/16 01:44:13;;;;;;;6.00;3.38;;;;;;;;;;4995954;28;20930;-56
2023/09/16 01:46:38;;;;;;;7.53;3.90;;;;;;;;;;4989755;28;20412;-57
2023/09/16 01:49:03;;;;;;;5.90;3.87;;;;;;;;;;4989981;28;20407;-56
2023/09/16 01:51:29;;;;;;;7.53;4.10;;;;;;;;;;4994805;28;20453;-56
2023/09/16 01:53:54;;;;;;;8.30;4.23;;;;;;;;;;4986169;28;20411;-56
2023/09/16 01:56:20;;;;;;;7.30;4.00;;;;;;;;;;4982443;28;20779;-57
2023/09/16 01:58:45;;;;;;;7.77;4.27;;;;;;;;;;4983638;28;20415;-57
2023/09/16 02:01:11;;;;;;;8.23;4.80;;;;;;;;;;4988487;28;20410;-56
2023/09/16 02:03:36;;;;;;;7.07;4.40;;;;;;;;;;4991414;28;20440;-57
2023/09/16 02:06:02;;;;;;;7.70;4.40;;;;;;;;;;4990820;28;20782;-57
2023/09/16 02:08:27;;;;;;;8.53;4.90;;;;;;;;;;4996583;28;20794;-56
2023/09/16 02:10:52;;;;;;;7.30;4.63;;;;;;;;;;4990793;28;20932;-57
2023/09/16 02:13:17;;;;;;;8.23;5.87;;;;;;;;;;4990316;28;20412;-56
2023/09/16 02:15:43;;;;;;;8.33;5.03;;;;;;;;;;4993806;28;20508;-56
2023/09/16 02:18:08;;;;;;;8.43;5.00;;;;;;;;;;4985083;28;20407;-57
2023/09/16 02:20:33;;;;;;;7.45;4.80;;;;;;;;;;4983396;28;20892;-57
2023/09/16 02:23:00;;;;;;;8.43;5.20;;;;;;;;;;4986070;28;20414;-57
2023/09/16 02:25:25;;;;;;;8.32;5.32;;;;;;;;;;5001570;28;20387;-56
2023/09/16 02:27:51;;;;;;;8.37;6.00;;;;;;;;;;5003102;28;20547;-57
2023/09/16 02:30:16;;;;;;;9.50;6.10;;;;;;;;;;4989442;28;20762;-57
2023/09/16 02:32:41;;;;;;;9.93;6.40;;;;;;;;;;4993967;28;20414;-56
2023/09/16 02:35:07;;;;;;;11.15;6.88;;;;;;;;;;4990980;28;20403;-57
2023/09/16 02:37:32;;;;;;;10.93;6.33;;;;;;;;;;4990903;28;21004;-56
2023/09/16 02:39:57;;;;;;;10.23;5.90;;;;;;;;;;5008612;28;20403;-57
2023/09/16 02:42:23;;;;;;;9.47;6.17;;;;;;;;;;5018662;28;20405;-57
2023/09/16 02:44:48;;;;;;;8.80;6.83;;;;;;;;;;5021492;28;20438;-56
2023/09/16 02:47:13;;;;;;;10.83;6.70;;;;;;;;;;5020115;28;20404;-56
2023/09/16 02:49:39;;;;;;;10.53;7.03;;;;;;;;;;5018583;28;20767;-57
2023/09/16 02:52:04;;;;;;;12.45;7.25;;;;;;;;;;5024446;28;20399;-57
2023/09/16 02:54:29;;;;;;;9.55;6.72;;;;;;;;;;5025545;28;20485;-57
2023/09/16 02:56:55;;;;;;;10.07;7.13;;;;;;;;;;5027545;28;20488;-57
2023/09/16 02:59:20;;;;;;;10.30;6.80;;;;;;;;;;5032271;28;20406;-57
2023/09/16 03:01:45;;;;;;;10.83;7.13;;;;;;;;;;5033107;28;20936;-57
2023/09/16 03:04:11;;;;;;;10.70;7.03;;;;;;;;;;5029197;28;20407;-56
2023/09/16 03:06:36;;;;;;;10.07;7.47;;;;;;;;;;5021713;28;20399;-57
2023/09/16 03:09:01;;;;;;;11.03;8.03;;;;;;;;;;5024332;28;20434;-57
2023/09/16 03:11:27;;;;;;;11.70;7.80;;;;;;;;;;5023409;28;20407;-57
2023/09/16 03:13:53;;;;;;;9.73;7.50;;;;;;;;;;5020000;28;20521;-57
2023/09/16 03:16:20;;;;;;;10.68;7.70;;;;;;;;;;5019348;28;20422;-57
2023/09/16 03:18:46;;;;;;;10.47;7.00;;;;;;;;;;5022759;28;20407;-57
2023/09/16 03:21:11;;;;;;;10.70;7.70;;;;;;;;;;5020516;28;20430;-57
2023/09/16 03:23:37;;;;;;;10.97;7.37;;;;;;;;;;4994491;28;20410;-57
2023/09/16 03:26:02;;;;;;;10.53;7.73;;;;;;;;;;4981368;28;20432;-57
2023/09/16 03:28:27;;;;;;;10.43;7.80;;;;;;;;;;4983698;28;20422;-57
2023/09/16 03:30:53;;;;;;;10.13;7.30;;;;;;;;;;4992781;28;21203;-57
2023/09/16 03:33:18;;;;;;;9.83;6.90;;;;;;;;;;4989201;28;20430;-57
2023/09/16 03:35:43;;;;;;;12.83;8.40;;;;;;;;;;4989700;28;20529;-57
2023/09/16 03:38:09;;;;;;;10.20;7.43;;;;;;;;;;4994358;28;20940;-57
2023/09/16 03:40:34;;;;;;;12.20;7.93;;;;;;;;;;4989810;28;20854;-56
2023/09/16 03:42:59;;;;;;;12.77;8.53;;;;;;;;;;4989560;28;20766;-57
2023/09/16 03:45:25;;;;;;;10.60;8.00;;;;;;;;;;4985043;28;20775;-57
2023/09/16 03:47:50;;;;;;;10.47;7.60;;;;;;;;;;4983389;28;20411;-56
2023/09/16 03:50:15;;;;;;;10.60;7.93;;;;;;;;;;4983271;28;20418;-57
2023/09/16 03:52:41;;;;;;;11.63;7.65;;;;;;;;;;5008294;28;20428;-57
2023/09/16 03:55:06;;;;;;;10.30;8.07;;;;;;;;;;5010987;28;20403;-56
2023/09/16 03:57:31;;;;;;;11.00;7.90;;;;;;;;;;5007826;28;20725;-57
2023/09/16 03:59:57;;;;;;;10.23;8.07;;;;;;;;;;5007573;28;20412;-57
2023/09/16 04:02:22;;;;;;;11.20;7.90;;;;;;;;;;5002370;28;20410;-56
2023/09/16 04:04:47;;;;;;;9.87;7.40;;;;;;;;;;5008005;28;20436;-57
2023/09/16 04:07:12;;;;;;;10.40;7.47;;;;;;;;;;4985802;28;20816;-57
2023/09/16 04:09:38;;;;;;;11.57;7.83;;;;;;;;;;4998247;28;20428;-56
2023/09/16 04:12:03;;;;;;;9.10;7.67;;;;;;;;;;4985295;28;20409;-57
2023/09/16 04:14:28;;;;;;;9.85;7.57;;;;;;;;;;4983871;28;20411;-57
2023/09/16 04:16:54;;;;;;;9.02;7.25;;;;;;;;;;4990050;28;20781;-57
2023/09/16 04:19:19;;;;;;;9.73;7.13;;;;;;;;;;4993481;28;20428;-57
2023/09/16 04:21:46;;;;;;;9.63;7.37;;;;;;;;;;4986943;28;20999;-57
2023/09/16 04:24:12;;;;;;;10.50;7.40;;;;;;;;;;4988403;28;20402;-57
2023/09/16 04:26:37;;;;;;;11.27;7.68;;;;;;;;;;4992383;28;20415;-57
2023/09/16 04:29:02;;;;;;;11.90;7.77;;;;;;;;;;4985827;28;21548;-57
2023/09/16 04:31:29;;;;;;;9.53;7.50;;;;;;;;;;4981401;28;20406;-57
2023/09/16 04:33:55;;;;;;;10.63;7.80;;;;;;;;;;4982081;28;20493;-57
2023/09/16 04:36:20;;;;;;;9.87;7.60;;;;;;;;;;4982635;28;21541;-57
2023/09/16 04:38:46;;;;;;;10.80;8.17;;;;;;;;;;4988404;28;20414;-57
2023/09/16 04:41:13;;;;;;;10.35;7.30;;;;;;;;;;4988110;28;20488;-57
2023/09/16 04:43:38;;;;;;;12.88;7.38;;;;;;;;;;4993558;28;20547;-57
2023/09/16 04:46:04;;;;;;;9.53;7.17;;;;;;;;;;4987516;28;20433;-57
2023/09/16 04:48:30;;;;;;;11.00;7.70;;;;;;;;;;4990783;28;20396;-57
2023/09/16 04:50:56;;;;;;;9.30;7.32;;;;;;;;;;4995981;28;20785;-57
2023/09/16 04:53:21;;;;;;;10.63;8.45;;;;;;;;;;4991145;28;20399;-57
2023/09/16 04:55:46;;;;;;;10.80;7.97;;;;;;;;;;4983660;28;20426;-57
2023/09/16 04:58:12;;;;;;;10.60;8.17;;;;;;;;;;4986699;28;20436;-57
2023/09/16 05:00:38;;;;;;;10.83;8.00;;;;;;;;;;4992167;28;20521;-57
2023/09/16 05:03:04;;;;;;;11.80;8.77;;;;;;;;;;4990690;28;20507;-57
2023/09/16 05:05:29;;;;;;;12.83;9.20;;;;;;;;;;4991707;28;20424;-57
2023/09/16 05:07:54;;;;;;;10.55;8.48;;;;;;;;;;4997531;28;20847;-57
2023/09/16 05:10:20;;;;;;;12.23;9.20;;;;;;;;;;4990658;28;20395;-56
2023/09/16 05:12:45;;;;;;;10.60;8.13;;;;;;;;;;4992481;28;20463;-57
2023/09/16 05:15:11;;;;;;;11.27;8.20;;;;;;;;;;4990269;28;20927;-57
2023/09/16 05:17:37;;;;;;;10.63;7.90;;;;;;;;;;4986449;28;20410;-56
2023/09/16 05:20:03;;;;;;;11.07;8.60;;;;;;;;;;4983712;28;20418;-56
2023/09/16 05:22:28;;;;;;;10.07;8.00;;;;;;;;;;4988989;28;20410;-57
2023/09/16 05:24:53;;;;;;;11.00;8.50;;;;;;;;;;4994101;28;20604;-57
2023/09/16 05:27:19;;;;;;;9.60;7.93;;;;;;;;;;4990894;28;20427;-57
2023/09/16 05:29:44;;;;;;;11.47;8.57;;;;;;;;;;4991982;28;21022;-56
2023/09/16 05:32:09;;;;;;;12.65;8.88;;;;;;;;;;4992797;28;20418;-57
2023/09/16 05:34:34;;;;;;;11.10;8.32;;;;;;;;;;4997611;28;20513;-57
2023/09/16 05:37:00;;;;;;;10.97;8.40;;;;;;;;;;4990602;28;20432;-56
2023/09/16 05:39:25;;;;;;;10.60;8.40;;;;;;;;;;4984653;28;20948;-57
2023/09/16 05:41:50;;;;;;;10.70;8.63;;;;;;;;;;4985797;28;20703;-57
2023/09/16 05:44:19;;;;;;;11.07;8.30;;;;;;;;;;4983215;28;20411;-57
2023/09/16 05:46:45;;;;;;;11.75;8.25;;;;;;;;;;4992620;28;20505;-57
2023/09/16 05:49:11;;;;;;;12.10;8.87;;;;;;;;;;4996757;28;20500;-57
2023/09/16 05:51:36;;;;;;;11.15;8.68;;;;;;;;;;4989081;28;20903;-57
2023/09/16 05:54:02;;;;;;;11.00;8.47;;;;;;;;;;4990176;28;20489;-57
2023/09/16 05:56:27;;;;;;;11.93;8.30;;;;;;;;;;4992686;28;20862;-57
2023/09/16 05:58:52;;;;;;;10.63;8.15;;;;;;;;;;4992079;28;20405;-57
2023/09/16 06:01:18;;;;;;;9.80;7.65;;;;;;;;;;4985245;28;20481;-57
2023/09/16 06:03:43;;;;;;;10.37;7.70;;;;;;;;;;4985596;28;20407;-57
2023/09/16 06:06:09;;;;;;;9.50;7.83;;;;;;;;;;4986188;28;20474;-57
2023/09/16 06:08:34;;;;;;;9.67;7.33;;;;;;;;;;4990017;28;20415;-57
2023/09/16 06:10:59;;;;;;;10.10;8.07;;;;;;;;;;4990636;28;20421;-56
2023/09/16 06:13:25;;;;;;;10.17;7.57;;;;;;;;;;4996704;28;21211;-57
2023/09/16 06:15:50;;;;;;;10.20;7.55;;;;;;;;;;4989430;28;20921;-57
2023/09/16 06:18:16;;;;;;;9.90;7.30;;;;;;;;;;4990970;28;20959;-56
2023/09/16 06:20:41;;;;;;;10.00;6.93;;;;;;;;;;4991758;28;20488;-56
2023/09/16 06:23:06;;;;;;;9.80;7.00;;;;;;;;;;4990609;28;20412;-57
2023/09/16 06:25:33;;;;;;;10.27;7.10;;;;;;;;;;4988696;28;20446;-57
2023/09/16 06:27:59;;;;;;;8.53;6.87;;;;;;;;;;5010769;28;20480;-57
2023/09/16 06:30:24;;;;;;;9.23;7.30;;;;;;;;;;5015753;28;20885;-57
2023/09/16 06:32:52;;;;;;;10.27;7.17;;;;;;;;;;5015029;28;20514;-57
2023/09/16 06:35:17;;;;;;;9.27;6.53;;;;;;;;;;5013867;28;20400;-56
2023/09/16 06:37:42;;;;;;;15.63;6.70;;;;;;;;;;5017059;28;20420;-56
2023/09/16 06:40:08;;;;;;;8.20;6.37;;;;;;;;;;5011837;28;20395;-57
2023/09/16 06:42:33;;;;;;;8.55;6.40;;;;;;;;;;5016062;28;20410;-56
2023/09/16 06:44:58;;;;;;;9.37;6.47;;;;;;;;;;5015073;28;20811;-56
2023/09/16 06:47:26;;;;;;;9.13;6.07;;;;;;;;;;5013659;28;20403;-57
2023/09/16 06:49:51;;;;;;;7.53;5.70;;;;;;;;;;5011449;28;20411;-57
2023/09/16 06:52:17;;;;;;;7.57;5.33;;;;;;;;;;5012599;28;20761;-57
2023/09/16 06:54:42;;;;;;;7.40;5.10;;;;;;;;;;5015834;28;20775;-57
2023/09/16 06:57:07;;;;;;;6.80;4.80;;;;;;;;;;5013515;28;20904;-57
2023/09/16 06:59:33;;;;;;;7.03;5.43;;;;;;;;;;5026297;28;20478;-56
2023/09/16 07:01:58;;;;;;;6.97;5.00;;;;;;;;;;5030671;28;20489;-57
2023/09/16 07:04:25;;;;;;;8.20;5.10;;;;;;;;;;5018402;28;20401;-57
2023/09/16 07:06:50;;;;;;;7.85;6.25;;;;;;;;;;5026052;28;20475;-57
2023/09/16 07:09:15;;;;;;;8.90;6.50;;;;;;;;;;5023308;28;20410;-57
2023/09/16 07:11:41;;;;;;;8.83;7.07;;;;;;;;;;5019509;28;20413;-56
2023/09/16 07:14:06;;;;;;;8.37;6.60;;;;;;;;;;5023616;28;20496;-57
2023/09/16 07:16:40;;;;;;;7.90;7.07;;;;;;;;;;5028272;28;20486;-57
2023/09/16 07:19:05;;;;;;;8.20;6.32;;;;;;;;;;5026532;28;20391;-57
2023/09/16 07:21:31;;;;;;;7.40;6.60;;;;;;;;;;5012446;28;20394;-57
2023/09/16 07:24:00;;;;;;;9.40;6.90;;;;;;;;;;5012217;28;20414;-57
2023/09/16 07:26:26;;;;;;;10.18;7.25;;;;;;;;;;5032120;28;20964;-57
2023/09/16 07:28:51;;;;;;;11.07;7.90;;;;;;;;;;5011424;28;20418;-57
2023/09/16 07:31:17;;;;;;;8.90;7.60;;;;;;;;;;5028228;28;20403;-57
2023/09/16 07:33:42;;;;;;;9.13;7.17;;;;;;;;;;4994519;28;20885;-57
2023/09/16 07:36:07;;;;;;;9.23;7.00;;;;;;;;;;5022809;28;20518;-57
2023/09/16 07:38:33;;;;;;;8.97;7.23;;;;;;;;;;5033341;28;20455;-57
2023/09/16 07:40:58;;;;;;;8.43;7.10;;;;;;;;;;5042320;28;20419;-57
2023/09/16 07:43:23;;;;;;;9.13;7.30;;;;;;;;;;5039486;28;20895;-57
2023/09/16 07:45:48;;;;;;;9.33;6.97;;;;;;;;;;5034970;28;20459;-57
2023/09/16 07:48:14;;;;;;;9.20;6.70;;;;;;;;;;5025031;28;20762;-57
2023/09/16 07:50:39;;;;;;;10.30;7.28;;;;;;;;;;5018506;28;20406;-57
2023/09/16 07:53:05;;;;;;;9.17;6.80;;;;;;;;;;5022886;28;20499;-57
2023/09/16 07:55:30;;;;;;;9.47;6.87;;;;;;;;;;5023938;28;20413;-57
2023/09/16 07:57:55;;;;;;;8.00;7.10;;;;;;;;;;5019760;28;20469;-57
2023/09/16 08:00:21;;;;;;;8.80;7.10;;;;;;;;;;5021808;28;20423;-57
2023/09/16 08:02:46;;;;;;;9.63;7.83;;;;;;;;;;5023656;28;20448;-57
2023/09/16 08:05:11;;;;;;;9.60;7.47;;;;;;;;;;5020836;28;20905;-57
2023/09/16 08:07:37;;;;;;;9.17;7.00;;;;;;;;;;5017044;28;20401;-57
2023/09/16 08:10:02;;;;;;;8.23;6.83;;;;;;;;;;5010782;28;20415;-57
2023/09/16 08:12:28;;;;;;;9.55;6.53;;;;;;;;;;5022968;28;20563;-57
2023/09/16 08:14:53;;;;;;;9.27;7.30;;;;;;;;;;5018713;28;20414;-57
2023/09/16 08:17:18;;;;;;;9.47;7.60;;;;;;;;;;5030923;28;20408;-57
2023/09/16 08:19:44;;;;;;;9.00;7.83;;;;;;;;;;5029289;28;20460;-57
2023/09/16 08:22:09;;;;;;;11.43;7.57;;;;;;;;;;5028851;28;20399;-57
2023/09/16 08:24:34;;;;;;;9.27;7.73;;;;;;;;;;5032693;28;20393;-56
2023/09/16 08:27:01;;;;;;;9.60;7.83;;;;;;;;;;5026260;28;20440;-57
2023/09/16 08:29:26;;;;;;;9.30;7.70;;;;;;;;;;5030143;28;20738;-57
2023/09/16 08:31:51;;;;;;;9.83;7.60;;;;;;;;;;5027469;28;20411;-57
2023/09/16 08:34:17;;;;;;;9.90;8.00;;;;;;;;;;5032857;28;20408;-57
2023/09/16 08:36:42;;;;;;;8.47;7.20;;;;;;;;;;5029268;28;20399;-57
2023/09/16 08:39:07;;;;;;;9.93;7.40;;;;;;;;;;5018710;28;20412;-56
2023/09/16 08:41:49;;;;;;;10.90;7.30;;;;;;;;;;5021544;28;20403;-57
2023/09/16 08:44:15;;;;;;;9.48;7.20;;;;;;;;;;5015657;28;20473;-57
2023/09/16 08:46:41;;;;;;;9.00;7.03;;;;;;;;;;5020952;28;20469;-57
2023/09/16 08:49:07;;;;;;;9.23;6.72;;;;;;;;;;5023457;28;20404;-57
2023/09/16 08:51:32;;;;;;;8.38;6.68;;;;;;;;;;5021566;28;20403;-57
2023/09/16 08:53:58;;;;;;;7.05;6.15;;;;;;;;;;5023256;28;20417;-57
2023/09/16 08:56:23;;;;;;;10.40;6.30;;;;;;;;;;5018040;28;20500;-57
2023/09/16 08:58:49;;;;;;;7.80;6.07;;;;;;;;;;5021827;28;20414;-57
2023/09/16 09:01:16;;;;;;;9.30;6.47;;;;;;;;;;5021004;28;20407;-57
2023/09/16 09:03:41;;;;;;;8.77;6.43;;;;;;;;;;5019276;28;20423;-57
2023/09/16 09:06:06;;;;;;;8.03;6.33;;;;;;;;;;5019632;28;20418;-57
2023/09/16 09:08:32;;;;;;;8.67;6.10;;;;;;;;;;5021312;28;20407;-57
2023/09/16 09:10:58;;;;;;;8.20;6.03;;;;;;;;;;5021331;28;20411;-57
2023/09/16 09:13:23;;;;;;;7.63;5.90;;;;;;;;;;5017839;28;20412;-57
2023/09/16 09:15:48;;;;;;;9.32;6.05;;;;;;;;;;5021943;28;20415;-57
2023/09/16 09:18:15;;;;;;;8.03;6.60;;;;;;;;;;5022593;28;20762;-57
2023/09/16 09:20:41;;;;;;;8.70;6.00;;;;;;;;;;5018908;28;20964;-57
2023/09/16 09:23:07;;;;;;;8.40;5.93;;;;;;;;;;5020085;28;20407;-57
2023/09/16 09:25:32;;;;;;;9.82;5.80;;;;;;;;;;5022989;28;20418;-57
2023/09/16 09:27:58;;;;;;;8.57;6.25;;;;;;;;;;5021178;28;20987;-57
2023/09/16 09:30:26;;;;;;;7.78;6.05;;;;;;;;;;5017790;28;20388;-57
2023/09/16 09:32:52;;;;;;;9.73;6.37;;;;;;;;;;5022611;28;20414;-57
2023/09/16 09:35:20;;;;;;;7.65;6.05;;;;;;;;;;5025382;28;20786;-57
2023/09/16 09:37:47;;;;;;;9.10;5.80;;;;;;;;;;5019453;28;20755;-57
2023/09/16 09:40:12;;;;;;;8.75;6.35;;;;;;;;;;5025086;28;20508;-57
2023/09/16 09:42:41;;;;;;;9.18;6.28;;;;;;;;;;5031673;28;20455;-57
2023/09/16 09:45:07;;;;;;;8.30;5.88;;;;;;;;;;5033237;28;20436;-58
2023/09/16 09:47:34;;;;;;;9.17;5.93;;;;;;;;;;5030949;28;20407;-57
2023/09/16 09:49:59;;;;;;;9.90;6.10;;;;;;;;;;5026373;28;20473;-58
2023/09/16 09:52:25;;;;;;;9.60;5.60;;;;;;;;;;5027329;28;21110;-57
2023/09/16 09:54:52;;;;;;;9.37;6.10;;;;;;;;;;5024501;28;20813;-57
2023/09/16 09:57:17;;;;;;;7.82;5.60;;;;;;;;;;5019570;28;20416;-57
2023/09/16 09:59:42;;;;;;;8.27;5.10;;;;;;;;;;5036599;28;20419;-57
2023/09/16 10:02:08;;;;;;;9.60;5.25;;;;;;;;;;5032166;28;20504;-58
2023/09/16 10:04:33;;;;;;;9.68;5.90;;;;;;;;;;5031492;28;20485;-57
2023/09/16 10:07:00;;;;;;;7.73;5.43;;;;;;;;;;5025566;28;20415;-57
2023/09/16 10:09:25;;;;;;;7.85;4.65;;;;;;;;;;5024449;28;20435;-57
2023/09/16 10:11:50;;;;;;;6.87;4.73;;;;;;;;;;5021132;28;20450;-57
2023/09/16 10:14:16;;;;;;;7.27;4.80;;;;;;;;;;5027335;28;20414;-58
2023/09/16 10:16:41;;;;;;;6.47;4.73;;;;;;;;;;5030077;28;20391;-57
2023/09/16 10:19:06;;;;;;;6.33;4.40;;;;;;;;;;5036249;28;20413;-57
2023/09/16 10:21:32;;;;;;;7.60;4.60;;;;;;;;;;5033580;28;20406;-57
2023/09/16 10:23:57;;;;;;;7.23;4.40;;;;;;;;;;5033981;28;20411;-57
2023/09/16 10:26:22;;;;;;;7.63;4.80;;;;;;;;;;5032783;28;20397;-57
2023/09/16 10:28:49;;;;;;;5.82;4.15;;;;;;;;;;5027510;28;20427;-57
2023/09/16 10:31:16;;;;;;;8.02;4.70;;;;;;;;;;5023034;28;20516;-58
2023/09/16 10:33:41;;;;;;;7.22;4.60;;;;;;;;;;5024229;28;20395;-57
2023/09/16 10:36:07;;;;;;;6.33;3.87;;;;;;;;;;5019073;28;20757;-57
2023/09/16 10:38:33;;;;;;;6.90;3.95;;;;;;;;;;5023216;28;20410;-57
2023/09/16 10:40:58;;;;;;;6.20;3.80;;;;;;;;;;5027452;28;20512;-57
2023/09/16 10:43:23;;;;;;;8.67;4.50;;;;;;;;;;5023039;28;20397;-57
2023/09/16 10:45:48;;;;;;;5.87;4.33;;;;;;;;;;5018924;28;20423;-57
2023/09/16 10:48:14;;;;;;;6.33;4.07;;;;;;;;;;5023902;28;21239;-57
2023/09/16 10:50:39;;;;;;;5.00;3.67;;;;;;;;;;5016182;28;21057;-57
2023/09/16 10:53:05;;;;;;;5.70;3.70;;;;;;;;;;5027376;28;20401;-57
2023/09/16 10:55:35;;;;;;;5.97;3.88;;;;;;;;;;5026163;28;20888;-57
2023/09/16 10:58:03;;;;;;;7.30;3.90;;;;;;;;;;5023811;28;20411;-57
2023/09/16 11:00:31;;;;;;;5.75;3.60;;;;;;;;;;5018471;28;20395;-57
2023/09/16 11:02:58;;;;;;;6.10;4.60;;;;;;;;;;5038326;28;20443;-57
2023/09/16 11:05:23;;;;;;;6.77;3.80;;;;;;;;;;5031094;28;20394;-57
2023/09/16 11:07:49;;;;;;;5.13;3.30;;;;;;;;;;5032408;28;21325;-57
2023/09/16 11:10:14;;;;;;;7.32;3.58;;;;;;;;;;5032813;28;20411;-57
2023/09/16 11:12:39;;;;;;;6.63;3.40;;;;;;;;;;5032821;28;20406;-57
2023/09/16 11:15:06;;;;;;;4.60;3.17;;;;;;;;;;5025646;28;20851;-57
2023/09/16 11:17:31;;;;;;;6.25;3.55;;;;;;;;;;5031501;28;20391;-57
2023/09/16 11:20:09;;;;;;;6.53;4.20;;;;;;;;;;5021277;28;20419;-57
2023/09/16 11:22:34;;;;;;;5.53;3.38;;;;;;;;;;5009776;28;20411;-57
2023/09/16 11:25:00;;;;;;;4.60;3.30;;;;;;;;;;5018944;28;20439;-56
2023/09/16 11:27:25;;;;;;;4.70;3.40;;;;;;;;;;5015146;28;20459;-57
2023/09/16 11:29:52;;;;;;;5.77;3.47;;;;;;;;;;5012930;28;20401;-56
2023/09/16 11:32:17;;;;;;;5.40;3.22;;;;;;;;;;5022851;28;20410;-56
2023/09/16 11:34:44;;;;;;;4.47;3.20;;;;;;;;;;5010427;28;20423;-57
2023/09/16 11:37:09;;;;;;;4.50;2.90;;;;;;;;;;5014644;28;20509;-57
2023/09/16 11:39:35;;;;;;;5.73;3.17;;;;;;;;;;5012876;28;20914;-56
2023/09/16 11:42:00;;;;;;;5.85;3.05;;;;;;;;;;5009326;28;20493;-58
2023/09/16 11:44:28;;;;;;;4.88;2.80;;;;;;;;;;5013874;28;20405;-57
2023/09/16 11:46:53;;;;;;;4.50;2.42;;;;;;;;;;5012869;28;20415;-57
2023/09/16 11:49:20;;;;;;;4.80;2.42;;;;;;;;;;5028149;28;20400;-57
2023/09/16 11:51:50;;;;;;;5.57;2.50;;;;;;;;;;5019430;28;20406;-57
2023/09/16 11:54:17;;;;;;;3.40;2.22;;;;;;;;;;5025165;28;20494;-56
2023/09/16 11:56:42;;;;;;;3.20;2.22;;;;;;;;;;5025654;28;21161;-56
2023/09/16 11:59:07;;;;;;;4.17;2.30;;;;;;;;;;5019999;28;20412;-56
2023/09/16 12:01:34;;;;;;;5.70;2.30;;;;;;;;;;5030882;28;20413;-56
2023/09/16 12:04:00;;;;;;;3.95;2.20;;;;;;;;;;5012421;28;20424;-56
2023/09/16 12:06:26;;;;;;;3.53;2.25;;;;;;;;;;5026495;28;20405;-56
2023/09/16 12:08:53;;;;;;;3.30;2.20;;;;;;;;;;5033799;28;20405;-56
2023/09/16 12:11:18;;;;;;;3.70;2.20;;;;;;;;;;5028183;28;20558;-56
2023/09/16 12:13:44;;;;;;;3.70;2.40;;;;;;;;;;5022641;28;20498;-57
2023/09/16 12:16:09;;;;;;;5.10;2.47;;;;;;;;;;5032564;28;20414;-57
2023/09/16 12:18:35;;;;;;;4.40;2.30;;;;;;;;;;5023503;28;20411;-57
2023/09/16 12:21:00;;;;;;;4.40;2.30;;;;;;;;;;5023263;28;20395;-57
2023/09/16 12:23:27;;;;;;;4.50;2.30;;;;;;;;;;5030227;28;20434;-56
2023/09/16 12:25:53;;;;;;;4.57;2.30;;;;;;;;;;5027411;28;20423;-57
2023/09/16 12:28:20;;;;;;;4.57;2.60;;;;;;;;;;5030612;28;20401;-57
2023/09/16 12:30:46;;;;;;;3.33;2.47;;;;;;;;;;5023716;28;20881;-57
2023/09/16 12:33:12;;;;;;;4.43;2.50;;;;;;;;;;5019378;28;20547;-57
2023/09/16 12:35:38;;;;;;;4.57;2.70;;;;;;;;;;5018785;28;20530;-57
2023/09/16 12:38:04;;;;;;;3.67;2.40;;;;;;;;;;5022945;28;20407;-57
2023/09/16 12:40:30;;;;;;;4.88;2.38;;;;;;;;;;5030854;28;20900;-57
2023/09/16 12:42:55;;;;;;;4.63;2.42;;;;;;;;;;5016815;28;20414;-57
2023/09/16 12:45:20;;;;;;;4.37;2.40;;;;;;;;;;5013675;28;20410;-57
2023/09/16 12:47:46;;;;;;;3.50;2.27;;;;;;;;;;5018914;28;20416;-57
2023/09/16 12:50:11;;;;;;;4.93;2.23;;;;;;;;;;5030466;28;20403;-56
2023/09/16 12:52:36;;;;;;;4.53;2.40;;;;;;;;;;5025440;28;21036;-57
2023/09/16 12:55:02;;;;;;;4.33;3.00;;;;;;;;;;5029992;28;20415;-57
2023/09/16 12:57:27;;;;;;;4.37;2.60;;;;;;;;;;5034309;28;20400;-57
2023/09/16 12:59:59;;;;;;;5.23;2.80;;;;;;;;;;5030856;28;20411;-57
2023/09/16 13:02:24;;;;;;;5.00;2.67;;;;;;;;;;5004030;28;20432;-57
2023/09/16 13:05:08;;;;;;;3.37;2.43;;;;;;;;;;5022662;28;20889;-57
2023/09/16 13:07:33;;;;;;;3.95;2.60;;;;;;;;;;5025225;28;20443;-57
2023/09/16 13:09:58;;;;;;;6.40;2.87;;;;;;;;;;5025240;28;20414;-57
2023/09/16 13:12:24;;;;;;;4.37;2.77;;;;;;;;;;5028207;28;20779;-57
2023/09/16 13:14:49;;;;;;;3.93;2.60;;;;;;;;;;5031418;28;20896;-57
2023/09/16 13:17:16;;;;;;;5.80;2.73;;;;;;;;;;5020677;28;20412;-57
2023/09/16 13:19:41;;;;;;;4.30;2.80;;;;;;;;;;5026138;28;20399;-57
2023/09/16 13:22:11;;;;;;;5.80;3.00;;;;;;;;;;5025891;28;20564;-57
2023/09/16 13:24:41;;;;;;;4.68;3.03;;;;;;;;;;5025414;28;20423;-57
2023/09/16 13:27:07;;;;;;;6.65;3.30;;;;;;;;;;5025573;28;20411;-57
2023/09/16 13:29:32;;;;;;;5.35;2.88;;;;;;;;;;5027272;28;20406;-57
2023/09/16 13:31:59;;;;;;;5.23;3.07;;;;;;;;;;5021896;28;20773;-57
2023/09/16 13:34:37;;;;;;;5.13;2.80;;;;;;;;;;5003198;28;20485;-57
2023/09/16 13:37:03;;;;;;;4.47;2.70;;;;;;;;;;5007410;28;20478;-57
2023/09/16 13:39:29;;;;;;;4.80;2.75;;;;;;;;;;5001211;28;20970;-56
2023/09/16 13:41:54;;;;;;;6.10;2.40;;;;;;;;;;5013344;28;20414;-57
2023/09/16 13:44:19;;;;;;;3.47;2.50;;;;;;;;;;4996640;28;20446;-57
2023/09/16 13:46:44;;;;;;;5.37;2.67;;;;;;;;;;4995504;28;20928;-56
2023/09/16 13:49:10;;;;;;;4.30;2.77;;;;;;;;;;4995415;28;20407;-57
2023/09/16 13:51:35;;;;;;;4.93;2.90;;;;;;;;;;5000579;28;20937;-57
2023/09/16 13:54:00;;;;;;;6.13;3.00;;;;;;;;;;4995072;28;20444;-57
2023/09/16 13:56:26;;;;;;;4.70;2.90;;;;;;;;;;4989830;28;20785;-57
2023/09/16 13:58:51;;;;;;;4.30;2.72;;;;;;;;;;4991811;28;20411;-57
2023/09/16 14:01:16;;;;;;;5.72;3.15;;;;;;;;;;4989071;28;20414;-56
2023/09/16 14:03:42;;;;;;;5.97;2.83;;;;;;;;;;4991823;28;20473;-57
2023/09/16 14:06:07;;;;;;;5.37;2.70;;;;;;;;;;4997479;28;20524;-57
2023/09/16 14:08:33;;;;;;;4.18;2.80;;;;;;;;;;5004924;28;20413;-57
2023/09/16 14:10:59;;;;;;;4.60;2.73;;;;;;;;;;5006600;28;20480;-57
2023/09/16 14:13:24;;;;;;;6.60;3.30;;;;;;;;;;5002279;28;20765;-57
2023/09/16 14:15:50;;;;;;;5.70;3.13;;;;;;;;;;4999877;28;20872;-57
2023/09/16 14:18:15;;;;;;;5.35;3.22;;;;;;;;;;4990444;28;20411;-56
2023/09/16 14:20:40;;;;;;;5.97;3.30;;;;;;;;;;4986141;28;20661;-57
2023/09/16 14:23:06;;;;;;;5.57;3.07;;;;;;;;;;4991271;28;20821;-57
2023/09/16 14:25:33;;;;;;;5.22;3.35;;;;;;;;;;4992432;28;20423;-57
2023/09/16 14:27:58;;;;;;;5.85;3.28;;;;;;;;;;4976742;28;20403;-56
2023/09/16 14:30:24;;;;;;;6.03;3.40;;;;;;;;;;4996335;28;20448;-57
2023/09/16 14:32:49;;;;;;;4.77;3.17;;;;;;;;;;4997247;28;20498;-57